Time;durP1;ratioP1;P1;durP2;ratioP2;P2;SDS_P1;SDS_P2;PMS_P1;PMS_P2;Temp;Humidity;BMP_temperature;BMP_pressure;BME280_temperature;BME280_humidity;BME280_pressure;Samples;Min_cycle;Max_cycle;Signal;HPM_P1;HPM_P2
2020/12/05 00:01:44;;;;;;;30.45;15.35;;;;;;;11.60;62.34;102482.34;1769126;80;21267;-47
2020/12/05 00:04:12;;;;;;;23.62;13.98;;;;;;;11.58;62.39;102490.13;1760128;80;21187;-47
2020/12/05 00:06:40;;;;;;;23.62;14.73;;;;;;;11.55;62.37;102487.95;1765907;80;21180;-47
2020/12/05 00:09:10;;;;;;;28.00;14.38;;;;;;;11.55;62.61;102489.27;1767363;80;21559;-46
2020/12/05 00:11:38;;;;;;;26.05;15.50;;;;;;;11.55;62.67;102497.08;1762966;80;21565;-47
2020/12/05 00:14:06;;;;;;;32.93;16.97;;;;;;;11.55;62.57;102494.48;1769615;80;21254;-46
2020/12/05 00:16:35;;;;;;;32.23;15.85;;;;;;;11.56;62.38;102492.32;1768042;80;21179;-47
2020/12/05 00:19:03;;;;;;;22.55;13.98;;;;;;;11.56;62.34;102510.57;1753049;80;21172;-47
2020/12/05 00:21:31;;;;;;;26.17;14.05;;;;;;;11.54;62.37;102509.70;1764865;80;21124;-47
2020/12/05 00:24:00;;;;;;;29.72;14.70;;;;;;;11.52;62.46;102517.95;1770629;80;21120;-47
2020/12/05 00:26:29;;;;;;;22.95;14.05;;;;;;;11.52;62.53;102523.16;1769676;80;21120;-47
2020/12/05 00:28:58;;;;;;;28.95;15.10;;;;;;;11.52;62.49;102520.56;1769607;80;21604;-46
2020/12/05 00:31:26;;;;;;;20.00;12.50;;;;;;;11.53;62.53;102515.34;1765475;80;21136;-47
2020/12/05 00:33:54;;;;;;;23.60;12.82;;;;;;;11.55;62.62;102517.94;1766002;80;21131;-46
2020/12/05 00:36:23;;;;;;;25.60;12.98;;;;;;;11.56;62.58;102519.70;1766952;80;21608;-47
2020/12/05 00:38:53;;;;;;;28.07;13.05;;;;;;;11.60;62.53;102516.23;1760153;80;21116;-47
2020/12/05 00:41:21;;;;;;;24.72;13.05;;;;;;;11.63;62.42;102511.87;1769721;80;21109;-47
2020/12/05 00:43:49;;;;;;;17.07;11.30;;;;;;;11.65;62.35;102509.27;1753476;80;21239;-47
2020/12/05 00:46:18;;;;;;;28.77;14.15;;;;;;;11.66;62.27;102511.02;1767940;80;21171;-47
2020/12/05 00:48:46;;;;;;;23.12;12.07;;;;;;;11.70;62.20;102514.10;1768757;80;21290;-46
2020/12/05 00:51:15;;;;;;;28.32;14.25;;;;;;;11.73;62.11;102516.27;1764485;80;21592;-46
2020/12/05 00:53:44;;;;;;;31.05;14.05;;;;;;;11.76;62.00;102516.72;1763717;80;21565;-47
2020/12/05 00:56:23;;;;;;;18.30;11.95;;;;;;;11.75;61.85;102518.88;1764314;80;21548;-47
2020/12/05 00:58:52;;;;;;;25.50;12.60;;;;;;;11.74;61.78;102521.06;1758711;80;21263;-47
2020/12/05 01:01:20;;;;;;;21.75;13.18;;;;;;;11.51;62.52;102524.02;1768845;80;21608;-47
2020/12/05 01:03:48;;;;;;;22.77;12.55;;;;;;;11.46;62.62;102526.17;1772734;80;21572;-47
2020/12/05 01:06:17;;;;;;;28.40;13.58;;;;;;;11.55;62.32;102523.16;1763604;80;21579;-47
2020/12/05 01:08:45;;;;;;;23.67;12.65;;;;;;;11.59;62.16;102531.00;1759211;80;21330;-47
2020/12/05 01:11:17;;;;;;;22.35;11.85;;;;;;;11.59;62.18;102528.39;1757124;81;21132;-47
2020/12/05 01:13:48;;;;;;;22.77;12.10;;;;;;;11.48;62.42;102527.48;1762011;81;21311;-46
2020/12/05 01:16:17;;;;;;;21.23;11.25;;;;;;;11.61;61.88;102524.47;1666368;85;21189;-47
2020/12/05 01:18:45;;;;;;;32.15;14.30;;;;;;;11.65;61.58;102521.87;1758526;81;21156;-47
2020/12/05 01:21:14;;;;;;;23.65;12.30;;;;;;;11.64;61.53;102524.49;1669275;85;21188;-47
2020/12/05 01:23:43;;;;;;;22.27;12.80;;;;;;;11.64;61.63;102519.28;1754975;81;21117;-47
2020/12/05 01:26:11;;;;;;;24.60;12.88;;;;;;;11.64;61.58;102520.58;1664902;85;21720;-47
2020/12/05 01:28:39;;;;;;;25.70;12.60;;;;;;;11.63;61.53;102520.12;1762226;81;21307;-47
2020/12/05 01:31:10;;;;;;;23.32;13.05;;;;;;;11.64;61.45;102521.88;1757839;80;21384;-47
2020/12/05 01:33:39;;;;;;;21.77;12.58;;;;;;;11.66;61.31;102525.36;1665721;85;21191;-47
2020/12/05 01:36:07;;;;;;;26.90;12.63;;;;;;;11.67;61.35;102527.12;1763701;81;21168;-47
2020/12/05 01:38:35;;;;;;;22.07;11.50;;;;;;;11.66;61.33;102529.27;1760382;81;21322;-47
2020/12/05 01:41:03;;;;;;;18.32;11.60;;;;;;;11.66;61.26;102529.27;1760756;81;21195;-47
2020/12/05 01:43:32;;;;;;;21.10;11.40;;;;;;;11.66;61.21;102531.88;1751305;81;21287;-47
2020/12/05 01:46:05;;;;;;;21.90;12.55;;;;;;;11.64;61.09;102535.80;1758827;81;21157;-47
2020/12/05 01:48:39;;;;;;;20.70;12.23;;;;;;;11.66;60.96;102535.80;1766546;79;22958;-47
2020/12/05 01:51:07;;;;;;;20.50;11.40;;;;;;;11.57;60.91;102534.45;1739179;82;21168;-46
2020/12/05 01:53:36;;;;;;;24.18;11.93;;;;;;;11.57;60.96;102534.45;1685636;82;21152;-47
2020/12/05 01:56:04;;;;;;;20.52;11.40;;;;;;;11.58;60.98;102533.61;1732699;82;21171;-47
2020/12/05 01:58:34;;;;;;;18.30;11.12;;;;;;;11.60;60.80;102534.05;1740533;82;21188;-47
2020/12/05 02:01:03;;;;;;;21.42;12.10;;;;;;;11.59;60.82;102532.72;1732642;81;21113;-47
2020/12/05 02:03:32;;;;;;;23.50;12.33;;;;;;;11.59;60.75;102525.78;1740360;82;21136;-47
2020/12/05 02:06:15;;;;;;;20.70;11.63;;;;;;;11.60;60.65;102535.78;1739011;82;21134;-47
2020/12/05 02:09:05;;;;;;;21.07;10.32;;;;;;;11.59;60.61;102534.03;1743651;82;21157;-47
2020/12/05 02:11:38;;;;;;;22.60;12.33;;;;;;;11.58;60.75;102531.84;1670027;85;21323;-47
2020/12/05 02:14:09;;;;;;;16.00;10.43;;;;;;;11.52;60.89;102527.08;1670866;86;21613;-46
2020/12/05 02:16:39;;;;;;;16.67;10.70;;;;;;;11.48;60.98;102529.23;1670486;86;21173;-47
2020/12/05 02:19:09;;;;;;;19.40;12.50;;;;;;;11.54;60.73;102524.04;1670237;86;21189;-47
2020/12/05 02:21:38;;;;;;;22.73;11.45;;;;;;;11.55;60.59;102527.06;1670266;86;21181;-47
2020/12/05 02:24:06;;;;;;;23.42;11.03;;;;;;;11.52;60.53;102532.29;1670307;86;21821;-46
2020/12/05 02:26:35;;;;;;;21.97;12.35;;;;;;;11.48;60.67;102524.45;1670124;86;21181;-46
2020/12/05 02:29:04;;;;;;;19.60;11.97;;;;;;;11.48;60.75;102523.14;1670216;86;21196;-46
2020/12/05 02:31:33;;;;;;;20.35;11.45;;;;;;;11.45;60.85;102523.16;1670268;86;21634;-46
2020/12/05 02:34:01;;;;;;;23.65;11.25;;;;;;;11.48;60.72;102520.53;1670412;86;21184;-47
2020/12/05 02:36:32;;;;;;;18.48;9.85;;;;;;;11.48;60.63;102523.14;1658823;86;21161;-47
2020/12/05 02:39:09;;;;;;;19.17;12.15;;;;;;;11.51;60.52;102527.92;1670457;86;21248;-47
2020/12/05 02:41:41;;;;;;;19.23;11.50;;;;;;;11.46;60.65;102532.70;1670536;86;21231;-47
2020/12/05 02:44:09;;;;;;;20.92;12.35;;;;;;;11.46;60.61;102530.52;1670759;86;21196;-46
2020/12/05 02:46:38;;;;;;;23.80;11.90;;;;;;;11.44;60.58;102530.94;1666430;84;21380;-47
2020/12/05 02:49:06;;;;;;;21.15;12.13;;;;;;;11.42;60.74;102532.25;1697704;84;21730;-46
2020/12/05 02:51:34;;;;;;;16.42;10.88;;;;;;;11.41;60.84;102531.83;1682187;85;21274;-46
2020/12/05 02:54:02;;;;;;;22.00;11.08;;;;;;;11.43;60.81;102532.70;1682879;85;21299;-46
2020/12/05 02:56:31;;;;;;;21.23;11.00;;;;;;;11.44;60.69;102529.22;1682825;85;21181;-46
2020/12/05 02:58:59;;;;;;;16.52;10.48;;;;;;;11.43;60.67;102532.70;1682592;85;21177;-46
2020/12/05 03:01:27;;;;;;;18.42;10.85;;;;;;;11.43;60.56;102531.41;1696992;84;21326;-46
2020/12/05 03:03:56;;;;;;;16.05;11.08;;;;;;;11.43;60.47;102536.61;1696890;84;21648;-46
2020/12/05 03:06:24;;;;;;;20.50;11.65;;;;;;;11.45;60.58;102534.88;1697406;84;21201;-46
2020/12/05 03:08:52;;;;;;;24.98;12.88;;;;;;;11.48;60.58;102537.06;1729590;81;21700;-46
2020/12/05 03:11:21;;;;;;;19.57;10.43;;;;;;;11.46;60.50;102532.70;1750127;81;21148;-46
2020/12/05 03:13:49;;;;;;;19.87;11.03;;;;;;;11.43;60.51;102535.31;1744401;81;21171;-46
2020/12/05 03:16:17;;;;;;;21.52;13.03;;;;;;;11.40;60.54;102534.41;1745477;81;21151;-46
2020/12/05 03:18:46;;;;;;;24.23;12.93;;;;;;;11.39;60.74;102540.08;1749326;81;21185;-46
2020/12/05 03:21:16;;;;;;;22.70;12.33;;;;;;;11.38;60.88;102544.84;1742711;81;21450;-46
2020/12/05 03:23:48;;;;;;;20.32;12.65;;;;;;;11.39;60.87;102543.98;1749254;81;21329;-46
2020/12/05 03:26:16;;;;;;;19.85;11.45;;;;;;;11.39;60.77;102537.90;1744419;81;21192;-46
2020/12/05 03:28:45;;;;;;;21.85;11.73;;;;;;;11.40;60.78;102540.50;1744841;81;21298;-47
2020/12/05 03:31:27;;;;;;;20.02;12.25;;;;;;;11.40;60.86;102539.20;1740375;81;21289;-46
2020/12/05 03:33:46;;;;;;;20.68;12.07;;;;;;;11.39;60.94;102544.41;1743589;81;21534;-46
2020/12/05 03:36:17;;;;;;;22.13;11.40;;;;;;;11.37;60.92;102548.30;1749538;81;21164;-46
2020/12/05 03:38:46;;;;;;;18.48;11.55;;;;;;;11.39;60.81;102547.90;1742678;81;21195;-46
2020/12/05 03:41:14;;;;;;;21.87;12.30;;;;;;;11.42;60.53;102550.92;1746659;81;21184;-46
2020/12/05 03:43:42;;;;;;;18.20;11.55;;;;;;;10.76;62.52;102564.50;1745077;81;21188;-46
2020/12/05 03:46:11;;;;;;;21.23;13.32;;;;;;;11.09;61.77;102558.17;1748284;81;21734;-46
2020/12/05 03:48:39;;;;;;;19.48;11.93;;;;;;;11.10;61.63;102574.27;1725673;81;21137;-46
2020/12/05 03:51:08;;;;;;;17.70;11.28;;;;;;;10.61;62.98;102567.03;1730769;82;21157;-46
2020/12/05 03:53:36;;;;;;;20.02;12.80;;;;;;;10.44;63.58;102572.53;1718639;82;21153;-46
2020/12/05 03:56:04;;;;;;;17.17;11.70;;;;;;;10.40;63.88;102572.06;1729473;82;21267;-46
2020/12/05 03:58:32;;;;;;;21.05;12.43;;;;;;;10.37;64.05;102567.70;1722264;82;21185;-46
2020/12/05 04:01:01;;;;;;;19.48;11.45;;;;;;;10.37;64.12;102569.42;1724489;82;21728;-46
2020/12/05 04:03:29;;;;;;;20.90;11.40;;;;;;;10.36;64.00;102565.09;1722269;82;21183;-46
2020/12/05 04:05:57;;;;;;;20.70;12.82;;;;;;;10.34;63.90;102565.52;1723701;82;21291;-46
2020/12/05 04:08:26;;;;;;;25.17;14.13;;;;;;;10.31;64.03;102565.05;1723592;82;21149;-46
2020/12/05 04:10:54;;;;;;;20.08;12.70;;;;;;;10.32;64.31;102569.41;1718554;82;21149;-46
2020/12/05 04:13:23;;;;;;;21.30;12.13;;;;;;;10.32;64.18;102565.52;1721152;82;21133;-46
2020/12/05 04:15:51;;;;;;;23.42;12.05;;;;;;;10.32;64.08;102571.14;1720896;82;21217;-46
2020/12/05 04:18:19;;;;;;;23.25;11.63;;;;;;;10.30;64.11;102571.55;1726596;82;21335;-46
2020/12/05 04:20:47;;;;;;;17.73;11.12;;;;;;;10.29;64.29;102577.60;1723404;82;21295;-46
2020/12/05 04:23:16;;;;;;;17.48;10.70;;;;;;;10.31;64.18;102571.98;1723946;82;21296;-46
2020/12/05 04:25:44;;;;;;;19.45;11.25;;;;;;;10.33;64.18;102572.87;1725887;82;21145;-47
2020/12/05 04:28:12;;;;;;;17.37;11.65;;;;;;;10.32;63.94;102571.14;1728504;82;21189;-46
2020/12/05 04:30:40;;;;;;;19.40;10.82;;;;;;;10.29;63.85;102576.30;1721380;82;21177;-46
2020/12/05 04:33:09;;;;;;;20.50;11.05;;;;;;;10.25;63.81;102579.73;1730826;82;21161;-46
2020/12/05 04:35:37;;;;;;;15.70;10.98;;;;;;;10.22;63.98;102574.53;1725141;82;21118;-46
2020/12/05 04:38:05;;;;;;;21.42;11.75;;;;;;;10.21;64.19;102576.25;1720443;82;21549;-46
2020/12/05 04:40:33;;;;;;;16.73;10.75;;;;;;;10.20;64.07;102580.15;1727029;82;21130;-46
2020/12/05 04:43:02;;;;;;;17.52;10.38;;;;;;;10.17;64.01;102578.80;1725108;82;21125;-46
2020/12/05 04:45:30;;;;;;;18.62;10.23;;;;;;;10.14;64.19;102584.00;1722080;82;21187;-46
2020/12/05 04:47:58;;;;;;;25.82;12.82;;;;;;;10.14;64.21;102589.20;1733485;82;21152;-46
2020/12/05 04:50:27;;;;;;;23.98;12.18;;;;;;;10.13;64.24;102584.84;1735383;82;21195;-46
2020/12/05 04:52:55;;;;;;;15.93;10.55;;;;;;;10.13;64.37;102584.84;1739599;82;21648;-46
2020/12/05 04:55:23;;;;;;;17.10;10.95;;;;;;;10.12;64.22;102589.61;1724106;80;21341;-46
2020/12/05 04:57:57;;;;;;;16.65;10.38;;;;;;;10.11;64.34;102591.76;1738354;82;21302;-46
2020/12/05 05:00:26;;;;;;;19.05;10.63;;;;;;;10.09;64.38;102589.53;1728979;82;21152;-46
2020/12/05 05:03:01;;;;;;;19.55;11.57;;;;;;;10.10;64.36;102600.41;1739988;82;21239;-46
2020/12/05 05:05:29;;;;;;;20.52;10.20;;;;;;;10.11;64.35;102596.95;1740534;82;21287;-46
2020/12/05 05:07:57;;;;;;;13.08;9.08;;;;;;;10.12;64.25;102598.72;1744699;82;21306;-46
2020/12/05 05:10:30;;;;;;;19.30;10.43;;;;;;;10.15;64.14;102594.83;1732969;81;21165;-46
2020/12/05 05:13:12;;;;;;;19.75;10.23;;;;;;;10.16;63.98;102599.19;1735524;82;21188;-46
2020/12/05 05:15:35;;;;;;;20.85;11.55;;;;;;;10.16;64.04;102599.19;1737729;82;21181;-46
2020/12/05 05:18:04;;;;;;;18.07;11.10;;;;;;;10.16;64.08;102605.69;1737433;82;21321;-46
2020/12/05 05:20:42;;;;;;;17.35;11.65;;;;;;;10.11;64.05;102606.95;1736887;82;21632;-46
2020/12/05 05:23:19;;;;;;;16.17;10.03;;;;;;;10.64;62.50;102606.08;1738453;82;21613;-46
2020/12/05 05:25:58;;;;;;;17.62;10.80;;;;;;;10.76;62.05;102605.31;1673434;85;21183;-46
2020/12/05 05:28:36;;;;;;;24.57;11.43;;;;;;;10.92;61.52;102610.61;1670742;85;21196;-46
2020/12/05 05:31:26;;;;;;;17.45;10.70;;;;;;;10.87;61.62;102614.93;1676191;85;21600;-46
2020/12/05 05:33:53;;;;;;;15.20;10.03;;;;;;;10.90;61.46;102627.95;1665244;85;21240;-46
2020/12/05 05:36:28;;;;;;;20.62;10.72;;;;;;;10.92;61.23;102618.42;1674939;85;21180;-46
2020/12/05 05:39:09;;;;;;;19.35;10.60;;;;;;;11.04;61.13;102615.91;1809480;79;23388;-46
2020/12/05 05:41:38;;;;;;;18.98;10.85;;;;;;;11.05;60.87;102621.55;1725925;83;21166;-46
2020/12/05 05:44:12;;;;;;;18.98;10.80;;;;;;;11.02;60.82;102635.88;1737481;82;21151;-47
2020/12/05 05:46:43;;;;;;;15.35;10.00;;;;;;;11.01;60.68;102631.52;1737409;82;21129;-47
2020/12/05 05:49:13;;;;;;;19.27;9.70;;;;;;;10.97;60.71;102629.75;1681555;84;21208;-46
2020/12/05 05:51:47;;;;;;;20.05;11.40;;;;;;;10.96;60.70;102629.33;1731007;83;21159;-47
2020/12/05 05:54:23;;;;;;;23.45;11.50;;;;;;;10.96;60.91;102644.95;1731062;83;21626;-46
2020/12/05 05:57:13;;;;;;;18.98;11.65;;;;;;;11.03;60.88;102648.02;1815361;79;22981;-47
2020/12/05 05:59:42;;;;;;;18.48;11.15;;;;;;;10.99;60.81;102647.56;1699874;83;21321;-47
2020/12/05 06:02:14;;;;;;;17.42;11.28;;;;;;;11.01;60.83;102656.26;1739477;82;21181;-46
2020/12/05 06:04:45;;;;;;;27.93;10.65;;;;;;;11.01;60.68;102648.87;1751740;81;21601;-47
2020/12/05 06:07:17;;;;;;;14.70;10.55;;;;;;;11.00;60.59;102648.02;1740086;82;21160;-47
2020/12/05 06:09:52;;;;;;;16.15;10.25;;;;;;;10.97;60.60;102640.59;1643171;87;21243;-46
2020/12/05 06:12:29;;;;;;;13.60;9.30;;;;;;;11.00;60.38;102646.72;1671759;86;21433;-47
2020/12/05 06:14:58;;;;;;;15.83;8.18;;;;;;;11.01;60.45;102640.63;1671700;86;21188;-46
2020/12/05 06:17:27;;;;;;;17.95;8.70;;;;;;;11.05;60.19;102643.69;1671566;86;21339;-47
2020/12/05 06:19:56;;;;;;;17.02;10.38;;;;;;;11.08;60.13;102646.33;1671567;86;21184;-47
2020/12/05 06:22:49;;;;;;;14.63;9.10;;;;;;;11.11;59.98;102640.24;1671655;86;21595;-47
2020/12/05 06:25:19;;;;;;;14.43;9.65;;;;;;;11.12;59.88;102645.48;1670351;86;21168;-47
2020/12/05 06:27:51;;;;;;;15.85;10.38;;;;;;;11.11;59.90;102650.66;1671827;86;21649;-47
2020/12/05 06:30:24;;;;;;;17.27;10.45;;;;;;;11.17;60.08;102643.76;1771291;79;23451;-46
2020/12/05 06:32:55;;;;;;;19.25;10.82;;;;;;;11.14;60.06;102645.06;1737496;82;21671;-47
2020/12/05 06:35:32;;;;;;;20.75;11.25;;;;;;;11.10;60.10;102647.21;1732636;82;21279;-46
2020/12/05 06:38:00;;;;;;;20.30;11.28;;;;;;;11.10;60.14;102649.82;1737925;82;21188;-46
2020/12/05 06:40:28;;;;;;;14.68;11.00;;;;;;;11.08;59.94;102651.55;1738165;82;21287;-46
2020/12/05 06:42:57;;;;;;;21.55;11.73;;;;;;;11.03;60.08;102660.17;1734710;82;21357;-46
2020/12/05 06:45:33;;;;;;;18.95;10.78;;;;;;;10.97;60.38;102647.11;1741103;82;21132;-46
2020/12/05 06:48:13;;;;;;;16.30;10.10;;;;;;;10.92;60.48;102656.19;1741092;82;21145;-46
2020/12/05 06:50:46;;;;;;;27.00;11.80;;;;;;;10.93;60.55;102652.73;1741263;82;21546;-46
2020/12/05 06:53:26;;;;;;;17.23;11.15;;;;;;;10.91;60.58;102653.16;1647036;86;21326;-46
2020/12/05 06:55:56;;;;;;;18.15;9.50;;;;;;;10.95;60.35;102655.34;1659247;86;21149;-46
2020/12/05 06:58:26;;;;;;;14.78;9.73;;;;;;;10.91;60.42;102654.88;1655864;86;21330;-46
2020/12/05 07:00:55;;;;;;;20.55;11.28;;;;;;;10.90;60.52;102646.19;1649885;86;21244;-46
2020/12/05 07:03:26;;;;;;;18.20;11.08;;;;;;;10.93;60.67;102649.25;1656128;86;21362;-47
2020/12/05 07:06:00;;;;;;;16.97;10.85;;;;;;;10.98;60.59;102654.95;1808174;79;20180;-48
2020/12/05 07:08:38;;;;;;;17.25;10.18;;;;;;;10.95;60.58;102657.52;1779767;80;22628;-46
2020/12/05 07:11:13;;;;;;;19.82;10.72;;;;;;;10.97;60.62;102658.41;1772141;80;21148;-47
2020/12/05 07:13:49;;;;;;;18.65;10.90;;;;;;;10.98;60.62;102653.66;1776911;80;21136;-47
2020/12/05 07:16:26;;;;;;;17.35;9.05;;;;;;;11.01;60.56;102653.66;1778436;80;21171;-46
2020/12/05 07:18:58;;;;;;;20.27;9.73;;;;;;;11.05;60.26;102656.72;1778585;80;21155;-47
2020/12/05 07:21:28;;;;;;;12.28;8.38;;;;;;;11.07;60.25;102655.41;1773826;80;21136;-47
2020/12/05 07:23:56;;;;;;;15.10;9.73;;;;;;;11.09;60.12;102664.99;1775129;80;21198;-46
2020/12/05 07:26:25;;;;;;;15.03;10.08;;;;;;;10.88;60.67;102663.53;1761323;80;21156;-46
2020/12/05 07:28:56;;;;;;;18.17;10.45;;;;;;;10.84;60.79;102666.98;1775125;80;21135;-46
2020/12/05 07:31:24;;;;;;;19.98;10.38;;;;;;;10.77;61.16;102670.41;1771344;80;21592;-47
2020/12/05 07:33:53;;;;;;;20.32;9.75;;;;;;;10.76;61.15;102662.15;1775213;80;21568;-47
2020/12/05 07:36:21;;;;;;;17.10;10.78;;;;;;;10.72;61.34;102662.98;1775239;80;21289;-47
2020/12/05 07:38:51;;;;;;;12.95;9.28;;;;;;;10.73;61.35;102670.37;1769292;80;21277;-47
2020/12/05 07:41:20;;;;;;;18.92;9.90;;;;;;;10.69;61.34;102663.40;1777595;80;21556;-47
2020/12/05 07:43:48;;;;;;;17.85;9.63;;;;;;;10.66;61.42;102666.84;1770486;80;21696;-47
2020/12/05 07:46:17;;;;;;;13.83;8.70;;;;;;;10.62;61.50;102668.98;1764868;80;21131;-47
2020/12/05 07:48:45;;;;;;;11.75;8.03;;;;;;;10.57;61.46;102674.14;1767020;80;21155;-47
2020/12/05 07:51:15;;;;;;;10.95;8.18;;;;;;;10.51;61.83;102674.51;1778211;80;21690;-47
2020/12/05 07:53:44;;;;;;;13.62;8.98;;;;;;;10.49;61.73;102675.80;1767913;80;21171;-47
2020/12/05 07:56:21;;;;;;;16.10;10.05;;;;;;;10.53;61.64;102687.14;1775148;80;21144;-47
2020/12/05 07:58:55;;;;;;;20.20;9.28;;;;;;;10.52;61.56;102682.36;1775226;80;21152;-47
2020/12/05 08:01:46;;;;;;;16.40;8.43;;;;;;;10.49;61.79;102684.92;1770860;80;21143;-48
2020/12/05 08:04:36;;;;;;;18.32;8.78;;;;;;;10.47;61.99;102680.55;1776807;80;21203;-47
2020/12/05 08:10:13;;;;;;;20.80;10.82;;;;;;;10.51;62.02;102688.83;1792355;79;28062;-47
2020/12/05 08:13:01;;;;;;;18.98;9.33;;;;;;;10.48;62.11;102683.19;1766302;80;21659;-47
2020/12/05 08:15:30;;;;;;;15.72;9.05;;;;;;;10.48;62.11;102691.41;1770614;80;21140;-47
2020/12/05 08:17:59;;;;;;;17.65;8.78;;;;;;;10.49;62.30;102681.44;1721142;83;21148;-48
2020/12/05 08:20:28;;;;;;;16.77;8.68;;;;;;;10.50;62.28;102680.59;1710764;83;21219;-47
2020/12/05 08:22:57;;;;;;;14.95;8.10;;;;;;;10.50;62.10;102677.98;1699616;83;21160;-46
2020/12/05 08:25:27;;;;;;;15.30;8.53;;;;;;;10.49;62.07;102681.44;1712401;83;21715;-47
2020/12/05 08:27:55;;;;;;;12.45;8.38;;;;;;;10.47;61.91;102685.75;1708508;83;21192;-48
2020/12/05 08:30:24;;;;;;;20.20;9.65;;;;;;;10.45;62.17;102691.37;1708061;83;21144;-47
2020/12/05 08:33:01;;;;;;;12.95;9.30;;;;;;;10.44;62.20;102685.74;1709691;83;21136;-47
2020/12/05 08:35:31;;;;;;;18.10;9.83;;;;;;;10.39;62.17;102689.59;1676815;84;21370;-48
2020/12/05 08:38:01;;;;;;;15.45;9.95;;;;;;;10.39;62.20;102688.72;1684701;83;21168;-47
2020/12/05 08:40:30;;;;;;;16.50;9.40;;;;;;;10.37;62.36;102687.83;1723587;83;21204;-49
2020/12/05 08:42:58;;;;;;;18.17;10.30;;;;;;;10.32;62.61;102680.00;1734559;82;21144;-47
2020/12/05 08:45:27;;;;;;;16.10;9.80;;;;;;;10.31;62.51;102676.06;1729307;82;21161;-47
2020/12/05 08:47:55;;;;;;;19.27;10.88;;;;;;;10.24;62.69;102684.69;1736373;82;21229;-47
2020/12/05 08:50:29;;;;;;;16.48;9.55;;;;;;;10.28;62.74;102676.05;1733675;82;21220;-47
2020/12/05 08:52:59;;;;;;;18.40;9.35;;;;;;;10.28;62.51;102681.25;1731930;82;21195;-47
2020/12/05 08:55:28;;;;;;;17.45;10.18;;;;;;;10.27;62.52;102676.89;1737294;82;21322;-47
2020/12/05 08:58:02;;;;;;;18.35;10.72;;;;;;;10.27;62.68;102682.97;1739525;82;21196;-47
2020/12/05 09:00:33;;;;;;;17.98;10.28;;;;;;;10.26;62.65;102675.16;1734485;82;21207;-47
2020/12/05 09:03:02;;;;;;;15.38;9.65;;;;;;;10.22;62.52;102676.84;1727638;82;21164;-47
2020/12/05 09:05:31;;;;;;;20.50;9.73;;;;;;;10.19;62.59;102679.84;1736463;82;22310;-47
2020/12/05 09:08:00;;;;;;;21.95;9.85;;;;;;;10.17;62.50;102678.95;1738584;82;21193;-47
2020/12/05 09:10:29;;;;;;;15.68;9.05;;;;;;;10.16;62.60;102674.63;1738826;82;21153;-47
2020/12/05 09:13:06;;;;;;;19.25;9.88;;;;;;;10.17;62.59;102673.75;1744681;80;21096;-47
2020/12/05 09:15:38;;;;;;;19.27;10.28;;;;;;;10.19;62.46;102672.04;1765224;80;21132;-44
2020/12/05 09:18:06;;;;;;;20.00;11.20;;;;;;;10.18;62.57;102671.16;1771114;80;21163;-49
2020/12/05 09:20:35;;;;;;;19.07;9.25;;;;;;;10.18;62.66;102674.21;1768847;80;21167;-45
2020/12/05 09:23:03;;;;;;;12.85;9.03;;;;;;;10.19;62.80;102672.92;1765357;80;21309;-47
2020/12/05 09:25:37;;;;;;;15.60;9.90;;;;;;;10.22;62.63;102670.78;1771626;80;21286;-47
2020/12/05 09:28:13;;;;;;;18.70;10.78;;;;;;;10.21;62.49;102653.41;1764400;80;21100;-47
2020/12/05 09:30:41;;;;;;;16.00;9.40;;;;;;;10.22;62.41;102662.98;1770197;80;21144;-47
2020/12/05 09:33:17;;;;;;;21.97;10.55;;;;;;;10.23;62.57;102668.61;1769355;80;21171;-49
2020/12/05 09:35:46;;;;;;;14.75;9.73;;;;;;;10.21;62.50;102661.22;1768560;80;21172;-46
2020/12/05 09:38:14;;;;;;;17.48;11.18;;;;;;;10.20;62.42;102658.19;1768842;80;21136;-51
2020/12/05 09:40:42;;;;;;;18.15;9.98;;;;;;;10.19;62.33;102654.70;1773858;80;21188;-47
2020/12/05 09:43:11;;;;;;;15.55;10.50;;;;;;;10.16;62.41;102651.22;1771377;80;21128;-47
2020/12/05 09:45:39;;;;;;;17.17;8.63;;;;;;;10.10;62.46;102652.42;1770346;80;21136;-47
2020/12/05 09:48:08;;;;;;;15.75;9.23;;;;;;;10.08;62.42;102656.28;1769769;80;21155;-48
2020/12/05 09:50:36;;;;;;;15.93;9.53;;;;;;;10.06;62.33;102659.30;1768827;80;21160;-47
2020/12/05 09:53:04;;;;;;;15.20;9.20;;;;;;;10.05;62.42;102664.49;1769150;80;21282;-49
2020/12/05 09:55:32;;;;;;;15.30;9.43;;;;;;;10.03;62.36;102663.60;1765150;80;21286;-46
2020/12/05 09:58:01;;;;;;;15.55;9.13;;;;;;;10.00;62.29;102662.25;1773966;80;21628;-47
2020/12/05 10:00:30;;;;;;;12.93;8.30;;;;;;;9.97;62.15;102663.12;1758240;80;21199;-46
2020/12/05 10:02:59;;;;;;;16.87;9.48;;;;;;;9.93;61.89;102661.77;1774004;80;21127;-47
2020/12/05 10:05:27;;;;;;;15.15;9.20;;;;;;;9.83;62.08;102657.75;1774068;80;21163;-46
2020/12/05 10:07:57;;;;;;;13.85;8.55;;;;;;;9.81;62.25;102659.45;1770335;80;21147;-47
2020/12/05 10:10:26;;;;;;;15.53;9.03;;;;;;;9.79;62.21;102656.39;1770030;80;21191;-43
2020/12/05 10:12:55;;;;;;;16.70;9.18;;;;;;;9.77;62.35;102653.78;1765979;80;21119;-46
2020/12/05 10:15:23;;;;;;;15.65;9.10;;;;;;;9.78;62.41;102653.36;1766724;80;21254;-45
2020/12/05 10:17:51;;;;;;;16.12;8.83;;;;;;;9.77;62.27;102653.78;1766255;80;21259;-47
2020/12/05 10:20:20;;;;;;;11.35;7.97;;;;;;;9.74;62.35;102648.56;1762994;80;21151;-46
2020/12/05 10:22:49;;;;;;;17.45;9.93;;;;;;;9.71;62.33;102651.11;1764569;80;21230;-46
2020/12/05 10:25:18;;;;;;;15.60;8.55;;;;;;;9.70;62.35;102648.08;1718022;82;21156;-46
2020/12/05 10:27:46;;;;;;;17.10;9.43;;;;;;;9.70;62.43;102651.98;1709281;83;21155;-47
2020/12/05 10:30:14;;;;;;;14.93;9.20;;;;;;;9.69;62.40;102656.72;1709939;83;21631;-47
2020/12/05 10:32:43;;;;;;;14.58;8.25;;;;;;;9.67;62.37;102651.92;1697335;83;21624;-47
2020/12/05 10:35:11;;;;;;;13.88;8.35;;;;;;;9.65;62.26;102656.66;1706094;83;21160;-46
2020/12/05 10:37:40;;;;;;;14.15;8.88;;;;;;;9.60;62.16;102654.45;1703931;83;21282;-47
2020/12/05 10:40:08;;;;;;;17.20;9.43;;;;;;;9.57;62.17;102660.47;1707914;83;21174;-46
2020/12/05 10:42:36;;;;;;;19.25;8.78;;;;;;;9.53;62.29;102659.98;1710075;83;21168;-44
2020/12/05 10:45:05;;;;;;;11.57;7.80;;;;;;;9.49;62.43;102663.82;1709526;83;21322;-46
2020/12/05 10:47:34;;;;;;;14.43;7.90;;;;;;;9.49;62.12;102656.91;1704708;83;21299;-46
2020/12/05 10:50:02;;;;;;;19.48;9.05;;;;;;;9.51;62.15;102651.30;1713223;83;21625;-47
2020/12/05 10:52:30;;;;;;;16.67;9.03;;;;;;;9.53;62.23;102652.19;1705599;83;21144;-46
2020/12/05 10:54:59;;;;;;;12.95;7.80;;;;;;;9.51;62.08;102652.60;1699305;84;21188;-46
2020/12/05 10:57:27;;;;;;;17.52;8.80;;;;;;;9.48;62.03;102656.89;1699702;83;21124;-46
2020/12/05 10:59:56;;;;;;;13.45;7.60;;;;;;;9.48;62.01;102650.40;1705599;83;21152;-47
2020/12/05 11:02:25;;;;;;;11.48;7.65;;;;;;;9.44;61.93;102655.95;1708246;82;21148;-48
2020/12/05 11:04:53;;;;;;;17.70;8.85;;;;;;;9.41;61.99;102658.53;1707957;83;21129;-44
2020/12/05 11:07:22;;;;;;;15.30;8.40;;;;;;;9.39;61.99;102655.05;1704505;83;21294;-46
2020/12/05 11:09:50;;;;;;;13.53;8.13;;;;;;;9.34;61.89;102656.69;1695187;83;21157;-47
2020/12/05 11:12:19;;;;;;;15.60;8.25;;;;;;;9.31;61.86;102650.59;1712741;83;21151;-43
2020/12/05 11:14:47;;;;;;;16.57;8.38;;;;;;;9.31;61.93;102645.39;1714322;83;21187;-47
2020/12/05 11:17:17;;;;;;;13.20;7.40;;;;;;;9.29;61.82;102663.57;1714639;83;21623;-46
2020/12/05 11:19:45;;;;;;;13.50;7.62;;;;;;;9.27;61.70;102650.98;1714420;83;21160;-47
2020/12/05 11:22:13;;;;;;;13.90;8.13;;;;;;;9.25;61.47;102659.19;1721170;83;21140;-45
2020/12/05 11:24:42;;;;;;;15.58;8.25;;;;;;;9.24;61.31;102660.02;1711388;83;21188;-47
2020/12/05 11:27:10;;;;;;;12.45;7.22;;;;;;;9.22;61.44;102661.72;1701396;84;21152;-47
2020/12/05 11:29:39;;;;;;;10.90;7.15;;;;;;;9.21;61.37;102667.75;1724405;83;21457;-46